createdAt,value
2019-04-10T06:52:30.921Z,3856.00
2019-04-10T06:53:31.094Z,3908.00
2019-04-10T06:54:31.026Z,3956.00
2019-04-10T06:55:30.842Z,4012.00
2019-04-10T06:56:31.257Z,4072.00
2019-04-10T06:57:30.786Z,4148.00
2019-04-10T06:58:31.796Z,4232.00
2019-04-10T06:59:30.773Z,4328.00
2019-04-10T07:00:30.847Z,4436.00
2019-04-10T07:01:40.466Z,4572.00
2019-04-10T07:02:32.572Z,4748.00
2019-04-10T07:03:47.975Z,4920.00
2019-04-10T07:04:42.870Z,5108.00
2019-04-10T07:05:37.970Z,5288.00
2019-04-10T07:06:44.806Z,5428.00
2019-04-10T07:07:42.354Z,5600.00
2019-04-10T07:08:31.808Z,5760.00
2019-04-10T07:09:31.695Z,5868.00
2019-04-10T07:10:40.819Z,5944.00
2019-04-10T07:11:32.271Z,6084.00
2019-04-10T07:12:33.633Z,6132.00
2019-04-10T07:13:30.417Z,6192.00
2019-04-10T07:14:30.393Z,6276.00
2019-04-10T07:15:30.556Z,6444.00
2019-04-10T07:16:32.588Z,6536.00
2019-04-10T07:17:30.328Z,6672.00
2019-04-10T07:18:30.460Z,6752.00
2019-04-10T07:19:30.419Z,6872.00
2019-04-10T07:20:30.265Z,7004.00
2019-04-10T07:21:32.827Z,7096.00
2019-04-10T07:22:31.126Z,7156.00
2019-04-10T07:23:31.991Z,7224.00
2019-04-10T07:24:34.517Z,7344.00
2019-04-10T07:25:30.172Z,7464.00
2019-04-10T07:26:38.116Z,7548.00
2019-04-10T07:27:33.551Z,7596.00
2019-04-10T07:28:30.097Z,7608.00
2019-04-10T07:29:30.874Z,7644.00
2019-04-10T07:30:30.074Z,7696.00
2019-04-10T07:31:34.101Z,7760.00
2019-04-10T07:32:30.033Z,7820.00
2019-04-10T07:33:30.913Z,7888.00
2019-04-10T07:34:30.115Z,7968.00
2019-04-10T07:35:33.756Z,8040.00
2019-04-10T07:36:30.719Z,8112.00
2019-04-10T07:37:29.915Z,8192.00
2019-04-10T07:38:30.811Z,8272.00
2019-04-10T07:39:32.515Z,8360.00
2019-04-10T07:40:33.869Z,8440.00
2019-04-10T07:41:29.848Z,8536.00
2019-04-10T07:42:35.261Z,8632.00
2019-04-10T07:43:30.625Z,8720.00
2019-04-10T07:44:29.772Z,8812.00
2019-04-10T07:45:29.754Z,8908.00
2019-04-10T07:46:31.114Z,9008.00
2019-04-10T07:47:29.715Z,9104.00
2019-04-10T07:48:29.709Z,9208.00
2019-04-10T07:49:31.237Z,9312.00
2019-04-10T07:50:30.252Z,9424.00
2019-04-10T07:51:29.853Z,9528.00
2019-04-10T07:52:29.653Z,9644.00
2019-04-10T07:53:29.597Z,9736.00
2019-04-10T07:54:30.782Z,9816.00
2019-04-10T07:55:29.631Z,9868.00
2019-04-10T07:56:29.540Z,9932.00
2019-04-10T07:57:30.702Z,9968.00
2019-04-10T07:58:29.502Z,9976.00
2019-04-10T07:59:29.488Z,9956.00
2019-04-10T08:00:29.475Z,9964.00
2019-04-10T08:01:29.447Z,9988.00
2019-04-10T08:02:29.694Z,10036.00
2019-04-10T08:03:29.412Z,10088.00
2019-04-10T08:04:29.390Z,10116.00
2019-04-10T08:05:29.616Z,10184.00
2019-04-10T08:06:29.348Z,10240.00
2019-04-10T08:07:32.881Z,10248.00
2019-04-10T08:08:29.938Z,10240.00
2019-04-10T08:09:29.300Z,10312.00
2019-04-10T08:10:29.275Z,10336.00
2019-04-10T08:11:29.649Z,10336.00
2019-04-10T08:12:39.451Z,10236.00
2019-04-10T08:13:29.221Z,10220.00
2019-04-10T08:19:39.091Z,10048.00
2019-04-10T08:20:38.334Z,9924.00
2019-04-10T08:21:38.313Z,9808.00
2019-04-10T08:22:39.319Z,9736.00
2019-04-10T08:23:38.292Z,9668.00
2019-04-10T08:24:38.546Z,9652.00
2019-04-10T08:25:38.756Z,9640.00
2019-04-10T08:26:38.794Z,9656.00
2019-04-10T08:27:38.549Z,9660.00
2019-04-10T08:33:23.973Z,9820.00
2019-04-10T08:34:23.879Z,9864.00
2019-04-10T08:35:23.825Z,9900.00
2019-04-10T08:36:23.808Z,9948.00
2019-04-10T08:37:24.169Z,9980.00
2019-04-10T08:38:24.031Z,9984.00
2019-04-10T08:39:33.944Z,9908.00
2019-04-10T08:40:23.727Z,9860.00
2019-04-10T08:46:58.138Z,9620.00
2019-04-10T08:47:57.289Z,9640.00
2019-04-10T08:48:57.780Z,9660.00
2019-04-10T08:49:57.146Z,9712.00
2019-04-10T08:50:56.869Z,9784.00
2019-04-10T08:51:57.737Z,9856.00
2019-04-10T08:52:57.823Z,9956.00
2019-04-10T08:53:56.918Z,10016.00
2019-04-10T08:54:57.495Z,10116.00
2019-04-10T08:55:56.845Z,10192.00
2019-04-10T09:01:01.992Z,10572.00
2019-04-10T09:02:02.061Z,10640.00
2019-04-10T09:03:02.418Z,10684.00
2019-04-10T09:04:01.931Z,10708.00
2019-04-10T09:05:01.903Z,10720.00
2019-04-10T09:06:02.910Z,10736.00
2019-04-10T09:07:03.842Z,10752.00
2019-04-10T09:08:02.472Z,10744.00
2019-04-10T09:09:01.831Z,10696.00
2019-04-10T09:10:01.987Z,10632.00
2019-04-10T09:11:02.876Z,10552.00
2019-04-10T09:12:01.894Z,10500.00
2019-04-10T09:13:01.759Z,10384.00
2019-04-10T09:14:01.742Z,10288.00
2019-04-10T09:15:01.733Z,10232.00
2019-04-10T09:16:02.536Z,10108.00
2019-04-10T09:17:02.746Z,10112.00
2019-04-10T09:18:01.941Z,10124.00
2019-04-10T09:19:01.657Z,10120.00
2019-04-10T09:20:02.646Z,10052.00
2019-04-10T09:21:02.693Z,10044.00
2019-04-10T09:22:01.721Z,9996.00
2019-04-10T09:23:26.300Z,9924.00
2019-04-10T09:24:02.592Z,10008.00
2019-04-10T09:25:02.725Z,9960.00
2019-04-10T09:26:01.855Z,9908.00
2019-04-10T09:27:02.529Z,9884.00
2019-04-10T09:28:02.267Z,9824.00
2019-04-10T09:29:02.455Z,9744.00
2019-04-10T09:30:02.500Z,9660.00
2019-04-10T09:31:01.790Z,9608.00
2019-04-10T09:32:02.183Z,9548.00
2019-04-10T09:33:02.960Z,9512.00
2019-04-10T09:34:01.402Z,9508.00
2019-04-10T09:35:02.501Z,9524.00
2019-04-10T09:36:01.381Z,9552.00
2019-04-10T09:37:01.856Z,9548.00
2019-04-10T09:38:02.141Z,9596.00
2019-04-10T09:39:01.321Z,9656.00
2019-04-10T09:40:01.306Z,9680.00
2019-04-10T09:41:01.540Z,9728.00
2019-04-10T09:42:01.359Z,9804.00
2019-04-10T09:47:09.932Z,10172.00
2019-04-10T09:48:10.637Z,10244.00
2019-04-10T09:49:09.831Z,10320.00
2019-04-10T09:50:09.812Z,10388.00
2019-04-10T09:51:09.847Z,10448.00
2019-04-10T09:52:10.311Z,10500.00
2019-04-10T09:53:10.712Z,10564.00
2019-04-10T09:54:09.927Z,10624.00
2019-04-10T09:55:09.726Z,10700.00
2019-04-10T09:56:09.707Z,10776.00
2019-04-10T09:57:09.693Z,10864.00
2019-04-10T09:58:09.689Z,10960.00
2019-04-10T09:59:09.713Z,11060.00
2019-04-10T10:00:10.558Z,11160.00
2019-04-10T10:01:10.729Z,11252.00
2019-04-10T10:02:09.623Z,11340.00
2019-04-10T10:03:09.811Z,11436.00
2019-04-10T10:04:09.575Z,11544.00
2019-04-10T10:05:10.500Z,11664.00
2019-04-10T10:06:09.545Z,11764.00
2019-04-10T10:07:10.325Z,11864.00
2019-04-10T10:08:10.541Z,11944.00
2019-04-10T10:09:09.498Z,12032.00
2019-04-10T10:10:10.612Z,12056.00
2019-04-10T10:11:09.617Z,12168.00
2019-04-10T10:12:09.619Z,12208.00
2019-04-10T10:13:09.649Z,12280.00
2019-04-10T10:14:10.392Z,12444.00
2019-04-10T10:15:09.604Z,12548.00
2019-04-10T10:16:10.476Z,12632.00
2019-04-10T10:17:10.567Z,12736.00
2019-04-10T10:18:09.384Z,12872.00
2019-04-10T10:19:10.033Z,12908.00
2019-04-10T10:20:09.319Z,12956.00
2019-04-10T10:21:10.261Z,12944.00
2019-04-10T10:22:09.400Z,12924.00
2019-04-10T10:23:09.600Z,12912.00
2019-04-10T10:24:09.256Z,12896.00
2019-04-10T10:25:09.236Z,12880.00
2019-04-10T10:26:09.988Z,12860.00
2019-04-10T10:27:09.477Z,12824.00
2019-04-10T10:28:09.207Z,12796.00
2019-04-10T10:29:09.300Z,12836.00
2019-04-10T10:30:09.474Z,12704.00
2019-04-10T10:31:09.139Z,12544.00
2019-04-10T10:32:09.123Z,12364.00
2019-04-10T10:33:09.839Z,12224.00
2019-04-10T10:34:10.173Z,12140.00
2019-04-10T10:35:09.382Z,12184.00
2019-04-10T10:36:09.060Z,12000.00
2019-04-10T10:37:09.044Z,11936.00
2019-04-10T10:38:09.030Z,11780.00
2019-04-10T10:39:12.690Z,11668.00
2019-04-10T10:40:10.073Z,11588.00
2019-04-10T10:41:08.980Z,11536.00
2019-04-10T10:42:09.588Z,11484.00
2019-04-10T10:43:09.922Z,11408.00
2019-04-10T10:44:09.023Z,11360.00
2019-04-10T10:45:08.913Z,11320.00
2019-04-10T10:46:09.268Z,11280.00
2019-04-10T10:47:08.883Z,11248.00
2019-04-10T10:48:09.129Z,11232.00
2019-04-10T10:49:08.851Z,11232.00
2019-04-10T10:50:08.848Z,11220.00
2019-04-10T10:51:08.854Z,11212.00
2019-04-10T10:52:09.069Z,11204.00
2019-04-10T10:53:08.786Z,11192.00
2019-04-10T10:54:08.770Z,11180.00
2019-04-10T10:55:09.744Z,11164.00
2019-04-10T10:56:09.636Z,11136.00
2019-04-10T10:57:09.019Z,11120.00
2019-04-10T10:58:08.706Z,11112.00
2019-04-10T10:59:09.253Z,11108.00
2019-04-10T11:00:11.536Z,11108.00
2019-04-10T11:01:08.658Z,11108.00
2019-04-10T11:02:08.652Z,11108.00
2019-04-10T11:03:09.799Z,11116.00
2019-04-10T11:04:08.899Z,11112.00
2019-04-10T11:05:08.856Z,11104.00
2019-04-10T11:06:08.812Z,11096.00
2019-04-10T11:07:08.691Z,11084.00
2019-04-10T11:08:08.544Z,11064.00
2019-04-10T11:09:08.530Z,11032.00
2019-04-10T11:10:08.708Z,10992.00
2019-04-10T11:11:08.738Z,10952.00
2019-04-10T11:12:09.529Z,10884.00
2019-04-10T11:13:08.912Z,10808.00
2019-04-10T11:14:08.446Z,10744.00
2019-04-10T11:15:08.446Z,10680.00
2019-04-10T11:16:09.210Z,10640.00
2019-04-10T11:17:09.335Z,10612.00
2019-04-10T11:18:08.477Z,10612.00
2019-04-10T11:19:08.364Z,10612.00
2019-04-10T11:20:08.347Z,10624.00
2019-04-10T11:21:11.553Z,10648.00
2019-04-10T11:22:09.428Z,10692.00
2019-04-10T11:23:09.415Z,10744.00
2019-04-10T11:24:09.209Z,10800.00
2019-04-10T11:25:08.267Z,10876.00
2019-04-10T11:26:08.596Z,10992.00
2019-04-10T11:27:09.905Z,11128.00
2019-04-10T11:28:08.217Z,11248.00
2019-04-10T11:29:08.198Z,11332.00
2019-04-10T11:30:08.492Z,11404.00
2019-04-10T11:31:09.171Z,11476.00
2019-04-10T11:32:09.182Z,11440.00
2019-04-10T11:33:08.541Z,11436.00
2019-04-10T11:34:09.968Z,11480.00
2019-04-10T11:35:08.105Z,11560.00
2019-04-10T11:36:08.101Z,11580.00
2019-04-10T11:37:23.441Z,11528.00
2019-04-10T11:38:08.614Z,11504.00
2019-04-10T11:40:08.768Z,11560.00
2019-04-10T11:41:08.046Z,11596.00
2019-04-10T11:42:09.944Z,11696.00
2019-04-10T11:43:07.973Z,11828.00
2019-04-10T11:44:09.457Z,11940.00
2019-04-10T11:45:08.167Z,12020.00
2019-04-10T11:46:08.066Z,12144.00
2019-04-10T11:47:09.549Z,12208.00
2019-04-10T11:48:07.958Z,12340.00
2019-04-10T11:49:10.262Z,12472.00
2019-04-10T11:50:13.081Z,12568.00
2019-04-10T11:51:09.501Z,12756.00
2019-04-10T11:52:07.845Z,12908.00
2019-04-10T11:53:10.279Z,13056.00
2019-04-10T11:54:12.149Z,12932.00
2019-04-10T11:55:13.748Z,12840.00
2019-04-10T11:56:08.760Z,12780.00
2019-04-10T11:57:07.815Z,12792.00
2019-04-10T11:58:08.584Z,12828.00
2019-04-10T11:59:11.271Z,12848.00
2019-04-10T12:00:12.226Z,12888.00
2019-04-10T12:01:08.664Z,12948.00
2019-04-10T12:02:08.845Z,13044.00
2019-04-10T12:03:09.793Z,13148.00
2019-04-10T12:04:09.790Z,13236.00
2019-04-10T12:05:12.022Z,13328.00
2019-04-10T12:06:07.728Z,13440.00
2019-04-10T12:07:09.751Z,13568.00
2019-04-10T12:08:32.014Z,13712.00
2019-04-10T12:11:10.996Z,14064.00
2019-04-10T12:12:07.523Z,14176.00
2019-04-10T12:13:08.204Z,14276.00
2019-04-10T12:14:07.652Z,14388.00
2019-04-10T12:15:08.027Z,14492.00
2019-04-10T12:16:07.459Z,14544.00
2019-04-10T12:17:07.549Z,14604.00
2019-04-10T12:18:08.560Z,14688.00
2019-04-10T12:19:07.412Z,14816.00
2019-04-10T12:20:07.399Z,14988.00
2019-04-10T12:21:07.429Z,15180.00
2019-04-10T12:22:07.556Z,15400.00
2019-04-10T12:23:08.367Z,15588.00
2019-04-10T12:24:07.445Z,15636.00
2019-04-10T12:25:07.323Z,15852.00
2019-04-10T12:26:07.502Z,16160.00
2019-04-10T12:27:07.294Z,16324.00
2019-04-10T12:28:07.529Z,16544.00
2019-04-10T12:29:07.263Z,16768.00
2019-04-10T12:30:07.246Z,17056.00
2019-04-10T12:31:07.922Z,17056.00
2019-04-10T12:32:08.223Z,17280.00
2019-04-10T12:33:07.595Z,17600.00
2019-04-10T12:34:07.188Z,17920.00
2019-04-10T12:35:07.173Z,18240.00
2019-04-10T12:36:07.158Z,18528.00
2019-04-10T12:37:07.143Z,18848.00
2019-04-10T12:38:10.267Z,18880.00
2019-04-10T12:39:07.897Z,19104.00
2019-04-10T12:40:07.700Z,19296.00
2019-04-10T12:41:07.085Z,19488.00
2019-04-10T12:42:07.946Z,19424.00
2019-04-10T12:43:07.068Z,19584.00
2019-04-10T12:44:07.472Z,19424.00
2019-04-10T12:45:08.121Z,19168.00
2019-04-10T12:46:07.011Z,19168.00
2019-04-10T12:47:07.970Z,19168.00
2019-04-10T12:48:07.187Z,19104.00
2019-04-10T12:49:07.494Z,19264.00
2019-04-10T12:50:08.097Z,19392.00
2019-04-10T12:51:07.717Z,19456.00
2019-04-10T12:52:07.857Z,19488.00
2019-04-10T12:53:07.397Z,19552.00
2019-04-10T12:54:07.822Z,19776.00
2019-04-10T12:55:08.021Z,20224.00
2019-04-10T12:56:08.080Z,21056.00
2019-04-10T12:57:06.859Z,23648.00
2019-04-10T12:58:12.690Z,25408.00
2019-04-10T12:59:06.970Z,27712.00
2019-04-10T13:00:06.817Z,30080.00
2019-04-10T13:01:06.833Z,31616.00
2019-04-10T13:02:06.996Z,34016.00
2019-04-10T13:03:06.874Z,32192.00
2019-04-10T13:04:07.537Z,39040.00
2019-04-10T13:05:07.208Z,37952.00
2019-04-10T13:06:07.511Z,29728.00
2019-04-10T13:07:07.456Z,29696.00
2019-04-10T13:08:19.133Z,26560.00
2019-04-10T13:09:11.514Z,29632.00
2019-04-10T13:10:06.686Z,29600.00
2019-04-10T13:11:07.763Z,24448.00
2019-04-10T13:12:07.019Z,24224.00
2019-04-10T13:13:06.645Z,24320.00
2019-04-10T13:14:06.645Z,20832.00
2019-04-10T13:15:07.463Z,19584.00
2019-04-10T13:16:07.739Z,18880.00
2019-04-10T13:17:06.767Z,18880.00
2019-04-10T13:18:06.578Z,19424.00
2019-04-10T13:19:06.973Z,19872.00
2019-04-10T13:20:07.236Z,22144.00
2019-04-10T13:21:06.537Z,22752.00
2019-04-10T13:22:07.568Z,20000.00
2019-04-10T13:23:06.710Z,19712.00
2019-04-10T13:24:06.516Z,19360.00
2019-04-10T13:25:06.485Z,19136.00
2019-04-10T13:26:09.053Z,19200.00
2019-04-10T13:27:06.458Z,19424.00
2019-04-10T13:28:08.231Z,20608.00
2019-04-10T13:29:06.433Z,22272.00
2019-04-10T13:30:07.012Z,22400.00
2019-04-10T13:31:06.405Z,22688.00
2019-04-10T13:32:07.558Z,22752.00
2019-04-10T13:33:06.651Z,24576.00
2019-04-10T13:34:06.369Z,27392.00
2019-04-10T13:35:06.365Z,29632.00
2019-04-10T13:36:07.179Z,34432.00
2019-04-10T13:37:06.329Z,29152.00
2019-04-10T13:38:06.733Z,34944.00
2019-04-10T13:39:06.695Z,32768.00
2019-04-10T13:40:06.300Z,28512.00
2019-04-10T13:41:06.271Z,31168.00
2019-04-10T13:42:07.267Z,30848.00
2019-04-10T13:43:06.444Z,35904.00
2019-04-10T13:44:06.605Z,33728.00
2019-04-10T13:45:06.905Z,32256.00
2019-04-10T13:46:06.771Z,31840.00
2019-04-10T13:47:07.103Z,36064.00
2019-04-10T13:48:06.197Z,36800.00
2019-04-10T13:49:06.164Z,38368.00
2019-04-10T13:50:06.365Z,43488.00
2019-04-10T13:51:06.162Z,38848.00
2019-04-10T13:52:06.125Z,26464.00
2019-04-10T13:53:06.111Z,28512.00
2019-04-10T13:54:06.282Z,28768.00
2019-04-10T13:55:07.380Z,31616.00
2019-04-10T13:56:06.596Z,30400.00
2019-04-10T13:57:06.058Z,29216.00
2019-04-10T13:58:06.647Z,28544.00
2019-04-10T13:59:06.814Z,28416.00
2019-04-10T14:00:06.039Z,32832.00
2019-04-10T14:01:07.113Z,34656.00
2019-04-10T14:02:06.797Z,28704.00
2019-04-10T14:03:06.026Z,24128.00
2019-04-10T14:04:06.988Z,22016.00
2019-04-10T14:05:05.956Z,19936.00
2019-04-10T14:06:05.945Z,19456.00
2019-04-10T14:07:05.943Z,18144.00
2019-04-10T14:08:06.160Z,17760.00
2019-04-10T14:09:22.593Z,17472.00
2019-04-10T14:10:06.990Z,17376.00
2019-04-10T14:11:05.881Z,17376.00
2019-04-10T14:12:05.999Z,17856.00
2019-04-10T14:13:05.852Z,18176.00
2019-04-10T14:14:06.525Z,19424.00
2019-04-10T14:15:05.830Z,20032.00
2019-04-10T14:16:06.490Z,21888.00
2019-04-10T14:17:06.896Z,21472.00
2019-04-10T14:18:06.095Z,23904.00
2019-04-10T14:19:06.377Z,25088.00
2019-04-10T14:20:06.813Z,24928.00
2019-04-10T14:21:11.227Z,23776.00
2019-04-10T14:22:05.732Z,24512.00
2019-04-10T14:23:06.358Z,23488.00
2019-04-10T14:24:05.734Z,23072.00
2019-04-10T14:25:05.690Z,22368.00
2019-04-10T14:26:06.498Z,21952.00
2019-04-10T14:27:05.851Z,21920.00
2019-04-10T14:28:06.893Z,22528.00
2019-04-10T14:29:05.637Z,22560.00
2019-04-10T14:30:05.626Z,23040.00
2019-04-10T14:31:05.614Z,23264.00
2019-04-10T14:32:05.605Z,24480.00
2019-04-10T14:33:05.600Z,24576.00
2019-04-10T14:34:06.566Z,25088.00
2019-04-10T14:35:05.560Z,26176.00
2019-04-10T14:36:05.652Z,25504.00
2019-04-10T14:37:05.535Z,24512.00
2019-04-10T14:38:06.553Z,23488.00
2019-04-10T14:39:11.916Z,23264.00
2019-04-10T14:40:06.607Z,23328.00
2019-04-10T14:41:05.481Z,24096.00
2019-04-10T14:42:06.507Z,22528.00
2019-04-10T14:43:05.453Z,23008.00
2019-04-10T14:44:06.172Z,25248.00
2019-04-10T14:45:05.660Z,28160.00
2019-04-10T14:46:05.417Z,33984.00
2019-04-10T14:47:06.406Z,37792.00
2019-04-10T14:48:05.774Z,37120.00
2019-04-10T14:49:05.389Z,35776.00
2019-04-10T14:50:05.402Z,37312.00
2019-04-10T14:51:06.121Z,38848.00
2019-04-10T14:52:05.360Z,42272.00
2019-04-10T14:53:05.566Z,37152.00
2019-04-10T14:54:05.885Z,36064.00
2019-04-10T14:55:05.296Z,35168.00
2019-04-10T14:56:06.806Z,36832.00
2019-04-10T14:57:06.417Z,36896.00
2019-04-10T14:58:05.553Z,39584.00
2019-04-10T14:59:05.340Z,40384.00
2019-04-10T15:00:06.367Z,39488.00
2019-04-10T15:01:08.139Z,34560.00
2019-04-10T15:02:06.297Z,27680.00
2019-04-10T15:03:06.370Z,33856.00
2019-04-10T15:04:05.183Z,34528.00
2019-04-10T15:05:05.759Z,33056.00
2019-04-10T15:06:05.159Z,33984.00
2019-04-10T15:07:06.016Z,31136.00
2019-04-10T15:08:05.137Z,26528.00
2019-04-10T15:09:06.166Z,27104.00
2019-04-10T15:10:05.129Z,29536.00
2019-04-10T15:11:05.103Z,32448.00
2019-04-10T15:12:05.088Z,34208.00
2019-04-10T15:13:10.058Z,34016.00
2019-04-10T15:14:05.604Z,37856.00
2019-04-10T15:15:05.080Z,38752.00
2019-04-10T15:16:05.079Z,27840.00
2019-04-10T15:17:06.633Z,24448.00
2019-04-10T15:18:05.026Z,23808.00
2019-04-10T15:19:05.014Z,24672.00
2019-04-10T15:20:05.002Z,23840.00
2019-04-10T15:21:05.007Z,19776.00
2019-04-10T15:22:04.980Z,18048.00
2019-04-10T15:23:05.056Z,17344.00
2019-04-10T15:24:04.960Z,17152.00
2019-04-10T15:25:05.409Z,17248.00
2019-04-10T15:26:05.962Z,17152.00
2019-04-10T15:27:04.927Z,16960.00
2019-04-10T15:28:04.915Z,16456.00
2019-04-10T15:29:05.854Z,16384.00
2019-04-10T15:30:04.892Z,16240.00
2019-04-10T15:31:04.893Z,16040.00
2019-04-10T15:32:04.868Z,15600.00
2019-04-10T15:33:04.856Z,14888.00
2019-04-10T15:34:05.719Z,14264.00
2019-04-10T15:35:04.831Z,13712.00
2019-04-10T15:36:04.838Z,13372.00
2019-04-10T15:37:04.809Z,13284.00
2019-04-10T15:38:04.793Z,13640.00
2019-04-10T15:39:04.788Z,14504.00
2019-04-10T15:40:11.440Z,15432.00
2019-04-10T15:41:04.753Z,16512.00
2019-04-10T15:42:05.786Z,17696.00
2019-04-10T15:43:04.979Z,19840.00
2019-04-10T15:44:05.707Z,19072.00
2019-04-10T15:45:05.053Z,15944.00
2019-04-10T15:46:04.693Z,14636.00
2019-04-10T15:47:13.662Z,13992.00
2019-04-10T15:48:04.909Z,13980.00
2019-04-10T15:49:04.796Z,14964.00
2019-04-10T15:50:04.637Z,17408.00
2019-04-10T15:51:05.611Z,19392.00
2019-04-10T15:52:05.745Z,18112.00
2019-04-10T15:53:04.593Z,14736.00
2019-04-10T15:54:05.568Z,14324.00
2019-04-10T15:55:05.584Z,14856.00
2019-04-10T15:56:05.505Z,16256.00
2019-04-10T15:57:04.729Z,18528.00
2019-04-10T15:58:04.530Z,23520.00
2019-04-10T15:59:04.511Z,30464.00
2019-04-10T16:00:05.109Z,31904.00
2019-04-10T16:01:05.551Z,31616.00
2019-04-10T16:02:05.619Z,32128.00
2019-04-10T16:03:05.002Z,32672.00
2019-04-10T16:04:05.252Z,29664.00
2019-04-10T16:05:04.826Z,25952.00
2019-04-10T16:06:04.421Z,23904.00
2019-04-10T16:07:04.408Z,23904.00
2019-04-10T16:08:04.409Z,22304.00
2019-04-10T16:09:04.972Z,19968.00
2019-04-10T16:10:04.971Z,18528.00
2019-04-10T16:11:05.529Z,16960.00
2019-04-10T16:12:04.346Z,15328.00
2019-04-10T16:13:04.353Z,14976.00
2019-04-10T16:14:17.028Z,14396.00
2019-04-10T16:15:04.703Z,15872.00
2019-04-10T16:16:05.098Z,15904.00
2019-04-10T16:17:04.701Z,15712.00
2019-04-10T16:18:05.231Z,13600.00
2019-04-10T16:19:04.305Z,13116.00
2019-04-10T16:20:04.255Z,12724.00
2019-04-10T16:21:04.241Z,12376.00
2019-04-10T16:22:04.230Z,12504.00
2019-04-10T16:23:04.240Z,11868.00
2019-04-10T16:24:04.612Z,11088.00
2019-04-10T16:25:05.274Z,9956.00
2019-04-10T16:26:04.925Z,9000.00
2019-04-10T16:27:04.164Z,8508.00
2019-04-10T16:28:04.220Z,8336.00
2019-04-10T16:29:04.153Z,8512.00
2019-04-10T16:30:04.153Z,8560.00
2019-04-10T16:31:04.114Z,8280.00
2019-04-10T16:32:04.253Z,8204.00
2019-04-10T16:33:04.939Z,7920.00
2019-04-10T16:34:05.138Z,7940.00
2019-04-10T16:35:05.129Z,7512.00
2019-04-10T16:36:05.168Z,7144.00
2019-04-10T16:37:04.085Z,7012.00
2019-04-10T16:38:05.150Z,6940.00
2019-04-10T16:39:04.930Z,7012.00
2019-04-10T16:40:06.848Z,7512.00
2019-04-10T16:41:04.730Z,7980.00
2019-04-10T16:42:03.962Z,7884.00
2019-04-10T16:43:04.928Z,7792.00
2019-04-10T16:44:04.635Z,8548.00
2019-04-10T16:45:03.951Z,8768.00
2019-04-10T16:46:04.900Z,8388.00
2019-04-10T16:47:03.891Z,9160.00
2019-04-10T16:48:03.882Z,10612.00
2019-04-10T16:49:04.408Z,11316.00
2019-04-10T16:50:03.862Z,10648.00
2019-04-10T16:51:03.834Z,9220.00
2019-04-10T16:52:04.933Z,8968.00
2019-04-10T16:53:03.805Z,9688.00
2019-04-10T16:54:04.288Z,11028.00
2019-04-10T16:55:03.790Z,12608.00
2019-04-10T16:56:03.765Z,12324.00
2019-04-10T16:57:04.487Z,11312.00
2019-04-10T16:58:03.733Z,10928.00
2019-04-10T16:59:04.615Z,10284.00
2019-04-10T17:00:04.734Z,9052.00
2019-04-10T17:01:04.344Z,8536.00
2019-04-10T17:02:03.838Z,8428.00
2019-04-10T17:03:03.683Z,8368.00
2019-04-10T17:04:04.771Z,8324.00
2019-04-10T17:05:03.901Z,8284.00
2019-04-10T17:06:03.989Z,8156.00
2019-04-10T17:07:03.605Z,7964.00
2019-04-10T17:08:03.738Z,7784.00
2019-04-10T17:09:04.708Z,7600.00
2019-04-10T17:10:11.555Z,7432.00
2019-04-10T17:11:03.604Z,7296.00
2019-04-10T17:12:03.978Z,7196.00
2019-04-10T17:13:04.439Z,7072.00
2019-04-10T17:14:04.735Z,6964.00
2019-04-10T17:15:03.959Z,6856.00
2019-04-10T17:16:03.500Z,6680.00
2019-04-10T17:17:04.187Z,6460.00
2019-04-10T17:18:03.452Z,6240.00
2019-04-10T17:19:03.560Z,6076.00
2019-04-10T17:20:04.177Z,5948.00
2019-04-10T17:21:04.666Z,5820.00
2019-04-10T17:22:04.682Z,5708.00
2019-04-10T17:23:04.487Z,5620.00
2019-04-10T17:24:03.349Z,5560.00
2019-04-10T17:25:04.099Z,5492.00
2019-04-10T17:26:03.395Z,5400.00
2019-04-10T17:27:04.632Z,5288.00
2019-04-10T17:28:03.827Z,5180.00
2019-04-10T17:29:03.282Z,5072.00
2019-04-10T17:30:03.479Z,4928.00
2019-04-10T17:31:04.367Z,4804.00
2019-04-10T17:32:03.234Z,4656.00
2019-04-10T17:33:03.211Z,4476.00
2019-04-10T17:34:03.199Z,4296.00
2019-04-10T17:35:03.314Z,4104.00
2019-04-10T17:36:04.264Z,3924.00
2019-04-10T17:37:03.178Z,3760.00
2019-04-10T17:38:04.505Z,3604.00
2019-04-10T17:39:03.110Z,3456.00
2019-04-10T17:40:04.120Z,3324.00
2019-04-10T17:41:04.468Z,3192.00
2019-04-10T17:42:04.035Z,3064.00
2019-04-10T17:43:03.125Z,2940.00
2019-04-10T17:44:03.291Z,2812.00
2019-04-10T17:45:03.071Z,2692.00
2019-04-10T17:46:02.988Z,2584.00
2019-04-10T17:47:04.666Z,2476.00
2019-04-10T17:48:03.300Z,2372.00
2019-04-10T17:49:03.237Z,2276.00
2019-04-10T17:50:03.683Z,2180.00
2019-04-10T17:51:03.636Z,2092.00
2019-04-10T17:52:03.892Z,2004.00
2019-04-10T17:53:02.884Z,1916.00
2019-04-10T17:54:04.084Z,1832.00
2019-04-10T17:55:03.162Z,1752.00
2019-04-10T17:56:04.117Z,1672.00
2019-04-10T17:57:02.810Z,1600.00
2019-04-10T17:58:03.279Z,1524.00
2019-04-10T17:59:02.776Z,1452.00
2019-04-10T18:00:02.989Z,1376.00
2019-04-10T18:01:03.841Z,1300.00
2019-04-10T18:02:02.717Z,1224.00
2019-04-10T18:03:03.422Z,1144.00
2019-04-10T18:04:03.642Z,1060.00
2019-04-10T18:05:02.660Z,980.00
2019-04-10T18:06:03.407Z,900.00
2019-04-10T18:07:03.783Z,824.00
2019-04-10T18:08:02.933Z,756.00
2019-04-10T18:09:02.590Z,700.00
2019-04-10T18:10:02.574Z,644.00
2019-04-10T18:11:03.690Z,596.00
2019-04-10T18:12:03.836Z,548.00
2019-04-10T18:13:02.993Z,504.00
2019-04-10T18:14:02.777Z,460.00
2019-04-10T18:15:02.482Z,420.00
2019-04-10T18:16:02.494Z,380.00
2019-04-10T18:17:02.588Z,344.00
2019-04-10T18:18:03.276Z,312.00
2019-04-10T18:19:02.411Z,280.00
2019-04-10T18:20:02.972Z,252.00
2019-04-10T18:21:02.376Z,228.00
2019-04-10T18:22:02.678Z,204.00
2019-04-10T18:23:03.039Z,180.00
2019-04-10T18:24:02.340Z,156.00
2019-04-10T18:25:03.392Z,140.00
2019-04-10T18:26:02.507Z,124.00
2019-04-10T18:27:02.271Z,108.00
2019-04-10T18:28:03.278Z,92.00
2019-04-10T18:29:02.463Z,80.00
2019-04-10T18:30:02.216Z,72.00
2019-04-10T18:31:02.828Z,60.00
2019-04-10T18:32:02.699Z,52.00
2019-04-10T18:33:03.363Z,44.00
2019-04-10T18:34:03.207Z,36.00
2019-04-10T18:35:02.756Z,32.00
2019-04-10T18:36:02.953Z,24.00
2019-04-10T18:37:03.342Z,20.00
2019-04-10T18:38:02.057Z,20.00
2019-04-10T18:39:02.067Z,16.00
2019-04-10T18:40:03.228Z,16.00
2019-04-10T18:41:05.293Z,12.00
2019-04-10T18:42:02.004Z,12.00
2019-04-10T18:43:02.231Z,8.00
2019-04-10T18:44:01.941Z,4.00
2019-04-10T18:45:01.973Z,8.00
2019-04-10T18:46:08.679Z,8.00
2019-04-10T18:47:02.831Z,4.00
2019-04-10T18:48:02.791Z,4.00
2019-04-10T18:49:01.850Z,4.00
2019-04-10T18:50:02.908Z,4.00
2019-04-10T18:51:01.809Z,0.00
2019-04-10T18:52:01.793Z,4.00
2019-04-10T18:53:01.783Z,4.00
2019-04-10T18:54:01.820Z,0.00
2019-04-10T18:55:01.751Z,0.00
2019-04-10T18:56:02.938Z,0.00
2019-04-10T18:57:02.018Z,0.00
2019-04-10T18:58:01.678Z,0.00
2019-04-10T18:59:02.691Z,0.00
2019-04-10T19:00:01.997Z,0.00
2019-04-10T19:01:01.618Z,0.00
2019-04-10T19:02:01.598Z,0.00
2019-04-10T19:03:01.580Z,0.00
2019-04-10T19:04:04.157Z,0.00
2019-04-10T19:05:01.553Z,0.00
2019-04-10T19:06:02.560Z,0.00
2019-04-10T19:07:01.860Z,0.00
2019-04-10T19:08:01.531Z,0.00
2019-04-10T19:09:10.146Z,0.00
2019-04-10T19:10:02.189Z,0.00
2019-04-10T19:11:16.649Z,0.00
2019-04-10T19:12:02.501Z,0.00
2019-04-10T19:13:01.506Z,0.00
2019-04-10T19:14:01.362Z,0.00
2019-04-10T19:15:01.359Z,0.00
2019-04-10T19:16:01.432Z,0.00